createdAt,value
2022-09-11T00:00:56.715Z,15.80
2022-09-11T00:03:27.175Z,19.88
2022-09-11T00:05:53.849Z,17.83
2022-09-11T00:08:21.432Z,17.90
2022-09-11T00:10:48.738Z,15.13
2022-09-11T00:13:25.382Z,18.15
2022-09-11T00:15:52.223Z,18.65
2022-09-11T00:18:24.006Z,22.75
2022-09-11T00:20:56.290Z,21.30
2022-09-11T00:23:25.604Z,20.83
2022-09-11T00:25:52.655Z,17.58
2022-09-11T00:28:21.921Z,24.50
2022-09-11T00:31:01.180Z,24.20
2022-09-11T00:33:33.422Z,22.38
2022-09-11T00:36:03.924Z,19.90
2022-09-11T00:38:33.038Z,21.48
2022-09-11T00:41:01.558Z,28.17
2022-09-11T00:43:51.934Z,25.33
2022-09-11T00:46:19.809Z,22.65
2022-09-11T00:48:49.760Z,22.98
2022-09-11T00:51:26.406Z,23.17
2022-09-11T00:53:59.202Z,25.67
2022-09-11T00:56:31.307Z,24.67
2022-09-11T00:58:59.249Z,25.00
2022-09-11T01:01:26.042Z,24.90
2022-09-11T01:03:56.844Z,25.67
2022-09-11T01:06:24.454Z,27.85
2022-09-11T01:08:52.541Z,29.05
2022-09-11T01:11:43.164Z,29.52
2022-09-11T01:14:21.797Z,27.00
2022-09-11T01:17:01.344Z,24.50
2022-09-11T01:19:43.597Z,23.35
2022-09-11T01:22:45.935Z,21.55
2022-09-11T01:25:30.020Z,19.15
2022-09-11T01:28:00.804Z,21.58
2022-09-11T01:30:37.525Z,21.13
2022-09-11T01:33:49.126Z,20.38
2022-09-11T01:36:53.714Z,19.77
2022-09-11T01:39:25.320Z,18.20
2022-09-11T01:41:56.357Z,20.27
2022-09-11T01:44:36.678Z,20.25
2022-09-11T01:47:10.667Z,18.98
2022-09-11T01:49:56.061Z,18.58
2022-09-11T01:52:32.004Z,19.60
2022-09-11T01:55:14.407Z,22.13
2022-09-11T01:57:48.178Z,18.92
2022-09-11T02:00:16.221Z,22.50
2022-09-11T02:02:46.962Z,20.58
2022-09-11T02:05:27.758Z,21.50
2022-09-11T02:07:56.643Z,19.55
2022-09-11T02:10:40.352Z,25.27
2022-09-11T02:13:44.197Z,21.67
2022-09-11T02:16:39.843Z,25.15
2022-09-11T02:19:12.338Z,25.20
2022-09-11T02:21:39.588Z,24.73
2022-09-11T02:24:34.714Z,25.15
2022-09-11T02:27:04.718Z,31.15
2022-09-11T02:29:32.802Z,26.15
2022-09-11T02:32:00.796Z,34.40
2022-09-11T02:34:34.257Z,26.27
2022-09-11T02:37:11.038Z,27.73
2022-09-11T02:40:15.523Z,25.98
2022-09-11T02:42:55.238Z,25.75
2022-09-11T02:45:32.530Z,29.92
2022-09-11T02:48:23.984Z,25.65
2022-09-11T02:51:12.250Z,24.23
2022-09-11T02:54:04.130Z,25.13
2022-09-11T02:56:34.081Z,23.83
2022-09-11T02:59:07.329Z,22.52
2022-09-11T03:01:53.126Z,23.20
2022-09-11T03:04:24.638Z,22.85
2022-09-11T03:06:53.632Z,24.70
2022-09-11T03:09:20.846Z,36.53
2022-09-11T03:11:51.150Z,23.95
2022-09-11T03:14:19.435Z,21.33
2022-09-11T03:16:46.806Z,21.20
2022-09-11T03:19:14.164Z,20.92
2022-09-11T03:21:40.619Z,19.20
2022-09-11T03:24:13.102Z,23.67
2022-09-11T03:26:39.759Z,21.83
2022-09-11T03:29:06.798Z,22.90
2022-09-11T03:31:37.364Z,22.63
2022-09-11T03:34:10.408Z,22.88
2022-09-11T03:36:37.168Z,21.42
2022-09-11T03:39:05.239Z,24.88
2022-09-11T03:41:32.585Z,19.25
2022-09-11T03:44:00.822Z,19.63
2022-09-11T03:46:28.887Z,22.33
2022-09-11T03:48:55.463Z,20.50
2022-09-11T03:51:21.942Z,20.30
2022-09-11T03:53:49.506Z,18.50
2022-09-11T03:56:16.241Z,18.73
2022-09-11T03:58:48.035Z,19.73
2022-09-11T04:01:16.078Z,31.90
2022-09-11T04:03:47.446Z,104.10
2022-09-11T04:06:26.715Z,109.35
2022-09-11T04:08:54.705Z,21.73
2022-09-11T04:11:22.514Z,28.05
2022-09-11T04:13:54.695Z,18.75
2022-09-11T04:16:24.653Z,17.43
2022-09-11T04:18:54.290Z,16.02
2022-09-11T04:21:21.302Z,26.95
2022-09-11T04:24:00.298Z,31.65
2022-09-11T04:26:31.257Z,63.88
2022-09-11T04:29:05.357Z,24.13
2022-09-11T04:31:34.398Z,43.83
2022-09-11T04:34:01.491Z,22.58
2022-09-11T04:36:32.038Z,19.48
2022-09-11T04:39:00.094Z,26.25
2022-09-11T04:41:28.506Z,19.08
2022-09-11T04:44:22.232Z,19.05
2022-09-11T04:46:48.678Z,18.27
2022-09-11T04:49:15.551Z,16.58
2022-09-11T04:51:45.171Z,21.50
2022-09-11T04:54:21.286Z,20.80
2022-09-11T04:56:48.879Z,19.40
2022-09-11T04:59:20.216Z,22.48
2022-09-11T05:01:55.161Z,20.10
2022-09-11T05:04:26.961Z,19.20
2022-09-11T05:06:55.069Z,19.70
2022-09-11T05:09:22.262Z,21.92
2022-09-11T05:11:48.875Z,26.40
2022-09-11T05:14:20.656Z,44.28
2022-09-11T05:16:50.045Z,22.02
2022-09-11T05:19:19.038Z,23.48
2022-09-11T05:21:46.188Z,45.03
2022-09-11T05:24:17.310Z,30.10
2022-09-11T05:26:43.816Z,38.60
2022-09-11T05:29:14.847Z,26.65
2022-09-11T05:32:07.460Z,32.67
2022-09-11T05:34:35.339Z,29.02
2022-09-11T05:37:02.368Z,34.83
2022-09-11T05:39:32.446Z,51.03
2022-09-11T05:42:01.542Z,19.40
2022-09-11T05:44:37.060Z,20.55
2022-09-11T05:47:04.754Z,28.27
2022-09-11T05:49:31.850Z,30.30
2022-09-11T05:51:59.917Z,56.47
2022-09-11T05:54:30.265Z,31.77
2022-09-11T05:56:59.125Z,21.55
2022-09-11T05:59:27.117Z,23.50
2022-09-11T06:01:54.240Z,29.35
2022-09-11T06:04:33.334Z,21.88
2022-09-11T06:07:00.165Z,28.45
2022-09-11T06:09:28.126Z,24.27
2022-09-11T06:11:54.757Z,18.73
2022-09-11T06:14:25.121Z,24.90
2022-09-11T06:16:51.677Z,23.88
2022-09-11T06:19:19.078Z,33.70
2022-09-11T06:21:46.250Z,24.52
2022-09-11T06:24:28.313Z,25.13
2022-09-11T06:26:56.237Z,21.70
2022-09-11T06:29:24.099Z,35.83
2022-09-11T06:31:51.619Z,33.05
2022-09-11T06:34:23.282Z,37.85
2022-09-11T06:36:52.392Z,30.17
2022-09-11T06:39:22.686Z,24.30
2022-09-11T06:41:50.263Z,24.02
2022-09-11T06:44:21.662Z,57.80
2022-09-11T06:46:48.137Z,24.42
2022-09-11T06:49:14.603Z,25.17
2022-09-11T06:51:59.606Z,29.83
2022-09-11T06:54:31.815Z,21.40
2022-09-11T06:57:02.469Z,102.65
2022-09-11T06:59:28.927Z,40.50
2022-09-11T07:01:55.911Z,69.35
2022-09-11T07:04:23.358Z,44.85
2022-09-11T07:06:50.418Z,22.63
2022-09-11T07:09:17.411Z,23.52
2022-09-11T07:11:50.091Z,112.75
2022-09-11T07:14:21.429Z,99.28
2022-09-11T07:16:52.822Z,21.67
2022-09-11T07:19:19.434Z,25.98
2022-09-11T07:21:45.922Z,121.75
2022-09-11T07:24:17.366Z,102.43
2022-09-11T07:26:44.501Z,143.98
2022-09-11T07:29:18.394Z,151.23
2022-09-11T07:31:50.070Z,23.23
2022-09-11T07:34:18.274Z,115.40
2022-09-11T07:36:45.581Z,111.47
2022-09-11T07:39:12.746Z,22.05
2022-09-11T07:41:49.296Z,55.80
2022-09-11T07:44:25.837Z,46.70
2022-09-11T07:46:53.002Z,28.60
2022-09-11T07:49:21.505Z,29.80
2022-09-11T07:51:48.387Z,36.80
2022-09-11T07:54:21.770Z,36.70
2022-09-11T07:56:48.706Z,26.10
2022-09-11T07:59:18.203Z,36.30
2022-09-11T08:01:47.850Z,27.98
2022-09-11T08:04:16.668Z,52.42
2022-09-11T08:06:43.951Z,32.58
2022-09-11T08:09:20.294Z,36.00
2022-09-11T08:11:55.606Z,45.00
2022-09-11T08:14:27.274Z,32.00
2022-09-11T08:16:57.282Z,38.97
2022-09-11T08:19:26.697Z,30.33
2022-09-11T08:21:56.235Z,34.35
2022-09-11T08:24:24.421Z,32.10
2022-09-11T08:26:55.225Z,30.98
2022-09-11T08:29:21.970Z,34.60
2022-09-11T08:31:48.811Z,30.73
2022-09-11T08:34:22.204Z,33.15
2022-09-11T08:36:50.873Z,37.45
2022-09-11T08:39:17.875Z,32.42
2022-09-11T08:41:53.482Z,38.72
2022-09-11T08:44:38.518Z,33.40
2022-09-11T08:47:31.036Z,29.45
2022-09-11T08:50:08.913Z,31.45
2022-09-11T08:52:36.725Z,43.63
2022-09-11T08:55:17.130Z,34.72
2022-09-11T08:57:54.898Z,33.00
2022-09-11T09:00:38.277Z,38.58
2022-09-11T09:03:40.117Z,35.28
2022-09-11T09:06:21.548Z,39.55
2022-09-11T09:09:13.939Z,37.28
2022-09-11T09:11:50.836Z,41.80
2022-09-11T09:14:47.462Z,45.67
2022-09-11T09:17:14.394Z,43.88
2022-09-11T09:19:50.021Z,48.47
2022-09-11T09:22:26.532Z,44.95
2022-09-11T09:25:01.229Z,51.05
2022-09-11T09:27:37.110Z,50.55
2022-09-11T09:30:07.501Z,52.65
2022-09-11T09:32:51.366Z,56.28
2022-09-11T09:35:39.354Z,47.70
2022-09-11T09:38:18.668Z,45.00
2022-09-11T09:40:59.813Z,49.72
2022-09-11T09:44:08.804Z,46.35
2022-09-11T09:46:41.711Z,45.90
2022-09-11T09:49:17.145Z,53.70
2022-09-11T09:51:43.755Z,46.72
2022-09-11T09:54:26.629Z,44.22
2022-09-11T09:57:02.497Z,43.78
2022-09-11T09:59:43.385Z,36.40
2022-09-11T10:02:09.862Z,38.10
2022-09-11T10:04:40.639Z,35.53
2022-09-11T10:07:10.510Z,35.90
2022-09-11T10:09:46.764Z,33.80
2022-09-11T10:12:21.652Z,30.10
2022-09-11T10:15:01.279Z,36.20
2022-09-11T10:17:31.894Z,31.42
2022-09-11T10:20:23.099Z,44.25
2022-09-11T10:22:51.185Z,33.38
2022-09-11T10:25:26.526Z,34.85
2022-09-11T10:28:14.532Z,32.50
2022-09-11T10:31:00.504Z,31.13
2022-09-11T10:33:37.102Z,29.08
2022-09-11T10:36:07.942Z,28.73
2022-09-11T10:38:46.511Z,29.80
2022-09-11T10:41:13.178Z,27.90
2022-09-11T10:44:00.336Z,30.42
2022-09-11T10:46:39.427Z,29.25
2022-09-11T10:49:05.828Z,28.45
2022-09-11T10:51:35.203Z,26.95
2022-09-11T10:54:16.946Z,29.27
2022-09-11T10:57:09.504Z,26.67
2022-09-11T10:59:49.937Z,26.65
2022-09-11T11:02:20.651Z,25.00
2022-09-11T11:04:52.177Z,26.05
2022-09-11T11:07:36.291Z,27.02
2022-09-11T11:10:13.117Z,27.38
2022-09-11T11:13:06.439Z,25.60
2022-09-11T11:15:53.058Z,23.35
2022-09-11T11:18:31.380Z,25.25
2022-09-11T11:21:32.760Z,23.13
2022-09-11T11:24:17.607Z,24.10
2022-09-11T11:26:44.059Z,22.38
2022-09-11T11:29:16.152Z,22.73
2022-09-11T11:32:15.854Z,24.17
2022-09-11T11:35:01.137Z,21.48
2022-09-11T11:37:34.063Z,24.48
2022-09-11T11:40:19.700Z,23.77
2022-09-11T11:42:56.113Z,23.48
2022-09-11T11:45:32.354Z,21.67
2022-09-11T11:48:02.146Z,24.45
2022-09-11T11:50:52.664Z,22.88
2022-09-11T11:53:48.621Z,23.88
2022-09-11T11:59:13.470Z,21.48
2022-09-11T12:02:25.990Z,20.60
2022-09-11T12:05:02.120Z,19.63
2022-09-11T12:07:34.165Z,18.27
2022-09-11T12:10:02.879Z,16.00
2022-09-11T12:12:33.840Z,17.85
2022-09-11T12:15:08.181Z,21.55
2022-09-11T12:17:40.126Z,17.25
2022-09-11T12:20:09.469Z,16.38
2022-09-11T12:22:48.558Z,16.20
2022-09-11T12:25:20.942Z,15.65
2022-09-11T12:27:48.790Z,16.23
2022-09-11T12:30:18.300Z,15.93
2022-09-11T12:32:49.797Z,15.30
2022-09-11T12:35:34.876Z,13.57
2022-09-11T12:38:19.842Z,13.25
2022-09-11T12:41:07.338Z,12.80
2022-09-11T12:43:37.252Z,13.98
2022-09-11T12:46:10.218Z,13.13
2022-09-11T12:48:56.249Z,14.40
2022-09-11T12:51:39.047Z,12.48
2022-09-11T12:54:21.880Z,12.55
2022-09-11T12:56:59.250Z,12.48
2022-09-11T12:59:51.539Z,12.63
2022-09-11T13:02:36.589Z,12.25
2022-09-11T13:05:06.171Z,11.05
2022-09-11T13:07:43.003Z,12.63
2022-09-11T13:10:25.864Z,10.60
2022-09-11T13:12:55.768Z,10.27
2022-09-11T13:15:38.763Z,8.75
2022-09-11T13:18:37.590Z,8.60
2022-09-11T13:21:10.578Z,9.40
2022-09-11T13:23:44.759Z,9.68
2022-09-11T13:26:26.176Z,10.90
2022-09-11T13:28:56.228Z,11.75
2022-09-11T13:31:33.531Z,9.68
2022-09-11T13:34:11.941Z,11.55
2022-09-11T13:36:39.498Z,11.32
2022-09-11T13:39:07.981Z,10.25
2022-09-11T13:41:39.950Z,10.10
2022-09-11T13:44:30.205Z,11.52
2022-09-11T13:46:56.839Z,11.55
2022-09-11T13:49:38.923Z,10.10
2022-09-11T13:52:06.529Z,11.55
2022-09-11T13:55:10.844Z,10.80
2022-09-11T13:57:54.633Z,10.45
2022-09-11T14:00:39.534Z,10.18
2022-09-11T14:03:16.724Z,12.32
2022-09-11T14:05:53.898Z,9.38
2022-09-11T14:08:27.082Z,8.70
2022-09-11T14:10:56.823Z,8.82
2022-09-11T14:13:26.149Z,10.77
2022-09-11T14:15:56.753Z,10.63
2022-09-11T14:18:29.093Z,10.90
2022-09-11T14:20:59.224Z,9.07
2022-09-11T14:23:31.218Z,9.32
2022-09-11T14:26:08.287Z,7.57
2022-09-11T14:28:47.885Z,9.50
2022-09-11T14:31:28.486Z,8.05
2022-09-11T14:34:18.233Z,9.48
2022-09-11T14:36:49.975Z,8.88
2022-09-11T14:39:42.307Z,9.70
2022-09-11T14:42:18.282Z,7.38
2022-09-11T14:44:44.962Z,8.98
2022-09-11T14:47:26.050Z,10.07
2022-09-11T14:49:54.488Z,8.00
2022-09-11T14:52:29.316Z,8.88
2022-09-11T14:54:57.031Z,10.85
2022-09-11T14:57:26.983Z,7.35
2022-09-11T14:59:53.481Z,7.65
2022-09-11T15:02:23.359Z,8.27
2022-09-11T15:04:56.490Z,11.50
2022-09-11T15:07:24.155Z,7.40
2022-09-11T15:09:52.485Z,7.57
2022-09-11T15:12:19.288Z,7.38
2022-09-11T15:14:57.092Z,8.52
2022-09-11T15:17:25.139Z,7.13
2022-09-11T15:19:52.600Z,6.70
2022-09-11T15:22:19.381Z,9.35
2022-09-11T15:24:46.642Z,7.72
2022-09-11T15:27:13.094Z,6.40
2022-09-11T15:29:40.597Z,6.72
2022-09-11T15:32:07.865Z,7.00
2022-09-11T15:34:35.800Z,8.50
2022-09-11T15:37:02.556Z,7.97
2022-09-11T15:39:29.064Z,9.25
2022-09-11T15:41:56.212Z,7.97
2022-09-11T15:44:28.595Z,9.05
2022-09-11T15:46:56.854Z,7.63
2022-09-11T15:49:24.024Z,7.05
2022-09-11T15:51:52.328Z,6.97
2022-09-11T15:54:20.532Z,8.05
2022-09-11T15:56:47.189Z,7.63
2022-09-11T15:59:17.955Z,7.18
2022-09-11T16:01:44.979Z,7.15
2022-09-11T16:04:36.594Z,8.15
2022-09-11T16:07:03.453Z,7.03
2022-09-11T16:09:31.592Z,7.60
2022-09-11T16:12:00.185Z,8.27
2022-09-11T16:14:31.011Z,7.78
2022-09-11T16:16:58.415Z,7.57
2022-09-11T16:19:27.764Z,8.10
2022-09-11T16:21:56.926Z,7.05
2022-09-11T16:24:25.875Z,7.18
2022-09-11T16:26:56.346Z,6.93
2022-09-11T16:29:25.573Z,6.13
2022-09-11T16:31:52.269Z,9.30
2022-09-11T16:34:23.553Z,8.05
2022-09-11T16:36:50.196Z,8.65
2022-09-11T16:39:21.696Z,8.73
2022-09-11T16:41:48.541Z,7.50
2022-09-11T16:44:19.739Z,7.45
2022-09-11T16:46:46.422Z,7.90
2022-09-11T16:49:17.627Z,8.02
2022-09-11T16:51:45.732Z,8.13
2022-09-11T16:54:14.748Z,11.05
2022-09-11T16:56:45.880Z,10.75
2022-09-11T16:59:12.760Z,10.10
2022-09-11T17:01:39.678Z,9.38
2022-09-11T17:04:07.287Z,8.77
2022-09-11T17:06:33.881Z,9.57
2022-09-11T17:09:04.050Z,13.80
2022-09-11T17:11:32.373Z,10.02
2022-09-11T17:14:03.393Z,10.48
2022-09-11T17:16:32.136Z,9.02
2022-09-11T17:18:59.824Z,8.00
2022-09-11T17:21:26.853Z,7.20
2022-09-11T17:23:57.246Z,9.65
2022-09-11T17:26:24.111Z,9.27
2022-09-11T17:28:51.831Z,7.35
2022-09-11T17:31:19.440Z,7.90
2022-09-11T17:33:49.659Z,8.48
2022-09-11T17:36:19.040Z,10.05
2022-09-11T17:38:48.197Z,8.90
2022-09-11T17:41:15.635Z,9.10
2022-09-11T17:43:48.091Z,10.75
2022-09-11T17:46:17.352Z,10.80
2022-09-11T17:48:44.191Z,9.63
2022-09-11T17:51:13.639Z,11.35
2022-09-11T17:53:42.489Z,9.60
2022-09-11T17:56:11.878Z,10.98
2022-09-11T17:58:38.578Z,10.60
2022-09-11T18:01:06.071Z,10.00
2022-09-11T18:03:36.230Z,11.93
2022-09-11T18:06:15.602Z,9.93
2022-09-11T18:08:42.252Z,13.75
2022-09-11T18:11:09.435Z,13.65
2022-09-11T18:13:37.858Z,9.50
2022-09-11T18:16:07.432Z,11.05
2022-09-11T18:18:36.077Z,10.75
2022-09-11T18:21:08.862Z,10.30
2022-09-11T18:23:42.413Z,13.32
2022-09-11T18:26:23.426Z,11.25
2022-09-11T18:28:50.638Z,10.55
2022-09-11T18:31:17.198Z,8.50
2022-09-11T18:33:53.150Z,8.07
2022-09-11T18:36:20.766Z,8.52
2022-09-11T18:39:00.022Z,9.85
2022-09-11T18:41:28.118Z,9.30
2022-09-11T18:44:00.825Z,9.25
2022-09-11T18:46:27.883Z,10.07
2022-09-11T18:48:55.808Z,9.32
2022-09-11T18:51:22.366Z,9.48
2022-09-11T18:53:54.487Z,10.60
2022-09-11T18:56:23.645Z,9.80
2022-09-11T18:58:52.129Z,13.48
2022-09-11T19:01:21.135Z,9.63
2022-09-11T19:03:53.337Z,10.38
2022-09-11T19:06:22.294Z,10.32
2022-09-11T19:08:49.012Z,11.90
2022-09-11T19:11:18.706Z,10.27
2022-09-11T19:13:48.590Z,10.50
2022-09-11T19:16:16.633Z,12.48
2022-09-11T19:18:43.326Z,12.02
2022-09-11T19:21:22.252Z,10.95
2022-09-11T19:24:00.156Z,10.60
2022-09-11T19:26:37.529Z,15.00
2022-09-11T19:29:04.516Z,15.93
2022-09-11T19:31:31.992Z,11.85
2022-09-11T19:34:01.561Z,12.35
2022-09-11T19:36:30.945Z,12.80
2022-09-11T19:39:00.504Z,15.27
2022-09-11T19:41:33.478Z,13.13
2022-09-11T19:44:02.956Z,13.98
2022-09-11T19:46:31.525Z,14.18
2022-09-11T19:49:00.803Z,16.00
2022-09-11T19:51:30.737Z,15.95
2022-09-11T19:54:02.784Z,13.05
2022-09-11T19:56:31.483Z,15.82
2022-09-11T19:58:58.028Z,15.63
2022-09-11T20:01:25.844Z,13.95
2022-09-11T20:03:57.581Z,13.10
2022-09-11T20:06:26.535Z,13.75
2022-09-11T20:09:07.940Z,12.93
2022-09-11T20:11:40.354Z,12.32
2022-09-11T20:14:32.598Z,13.00
2022-09-11T20:17:00.905Z,13.00
2022-09-11T20:19:28.038Z,13.07
2022-09-11T20:21:54.473Z,12.70
2022-09-11T20:24:22.881Z,13.95
2022-09-11T20:26:50.190Z,13.35
2022-09-11T20:29:16.684Z,15.88
2022-09-11T20:31:48.836Z,15.30
2022-09-11T20:34:19.683Z,17.02
2022-09-11T20:36:46.703Z,15.70
2022-09-11T20:39:14.028Z,17.27
2022-09-11T20:41:40.692Z,16.88
2022-09-11T20:44:11.938Z,18.38
2022-09-11T20:46:38.505Z,18.90
2022-09-11T20:49:05.494Z,18.75
2022-09-11T20:51:32.937Z,19.77
2022-09-11T20:54:05.529Z,21.63
2022-09-11T20:56:32.009Z,21.90
2022-09-11T20:59:00.022Z,19.90
2022-09-11T21:01:29.817Z,19.75
2022-09-11T21:04:00.428Z,22.50
2022-09-11T21:06:32.895Z,17.77
2022-09-11T21:09:02.650Z,18.73
2022-09-11T21:11:30.033Z,19.05
2022-09-11T21:13:56.549Z,19.67
2022-09-11T21:16:23.241Z,19.45
2022-09-11T21:18:52.710Z,18.27
2022-09-11T21:21:20.802Z,20.20
2022-09-11T21:23:56.179Z,17.98
2022-09-11T21:28:49.280Z,17.23
2022-09-11T21:31:15.764Z,17.77
2022-09-11T21:33:45.762Z,16.02
2022-09-11T21:36:12.369Z,16.75
2022-09-11T21:38:39.278Z,16.63
2022-09-11T21:41:08.711Z,18.02
2022-09-11T21:43:40.065Z,18.15
2022-09-11T21:46:08.743Z,15.95
2022-09-11T21:48:36.896Z,16.67
2022-09-11T21:51:06.499Z,18.73
2022-09-11T21:53:38.312Z,17.45
2022-09-11T21:56:05.348Z,17.65
2022-09-11T21:58:32.310Z,17.38
2022-09-11T22:01:08.121Z,17.10
2022-09-11T22:03:36.676Z,17.58
2022-09-11T22:06:10.627Z,17.52
2022-09-11T22:08:39.769Z,17.95
2022-09-11T22:11:07.247Z,19.40
2022-09-11T22:13:36.388Z,16.17
2022-09-11T22:16:05.604Z,17.17
2022-09-11T22:18:32.518Z,17.33
2022-09-11T22:21:01.223Z,17.70
2022-09-11T22:23:30.990Z,15.98
2022-09-11T22:26:05.766Z,17.45
2022-09-11T22:28:32.319Z,16.40
2022-09-11T22:30:58.771Z,13.02
2022-09-11T22:33:27.134Z,13.00
2022-09-11T22:35:53.559Z,16.88
2022-09-11T22:38:20.066Z,15.73
2022-09-11T22:40:52.309Z,15.85
2022-09-11T22:43:19.242Z,14.63
2022-09-11T22:45:51.003Z,15.88
2022-09-11T22:48:17.794Z,17.52
2022-09-11T22:50:44.607Z,16.95
2022-09-11T22:53:11.057Z,20.73
2022-09-11T22:55:43.862Z,18.15
2022-09-11T22:58:10.550Z,20.00
2022-09-11T23:00:37.271Z,16.83
2022-09-11T23:03:03.889Z,19.38
2022-09-11T23:05:49.034Z,17.58
2022-09-11T23:08:15.786Z,18.73
2022-09-11T23:10:43.860Z,18.38
2022-09-11T23:13:10.653Z,15.05
2022-09-11T23:15:41.926Z,15.38
2022-09-11T23:18:09.125Z,14.15
2022-09-11T23:20:35.620Z,14.88
2022-09-11T23:23:03.405Z,14.80
2022-09-11T23:25:31.609Z,14.43
2022-09-11T23:27:58.076Z,17.15
2022-09-11T23:30:24.556Z,14.77
2022-09-11T23:32:53.154Z,18.02
2022-09-11T23:35:19.627Z,17.48
2022-09-11T23:37:46.060Z,15.82
2022-09-11T23:40:12.654Z,16.17
2022-09-11T23:42:39.134Z,17.05
2022-09-11T23:45:07.498Z,15.27
2022-09-11T23:47:33.928Z,15.18
2022-09-11T23:50:00.630Z,13.45
2022-09-11T23:52:27.058Z,11.50
2022-09-11T23:54:57.451Z,12.48
2022-09-11T23:57:23.936Z,12.63
2022-09-11T23:59:50.361Z,13.00
